createdAt,value
2022-10-15T00:02:26.600Z,2.03
2022-10-15T00:07:11.678Z,2.25
2022-10-15T00:11:59.666Z,2.38
2022-10-15T00:16:44.689Z,2.25
2022-10-15T00:21:30.190Z,2.00
2022-10-15T00:26:17.180Z,1.83
2022-10-15T00:31:11.296Z,2.13
2022-10-15T00:36:02.095Z,1.85
2022-10-15T00:40:47.392Z,2.17
2022-10-15T00:45:32.421Z,1.92
2022-10-15T00:50:23.208Z,1.70
2022-10-15T00:55:13.135Z,1.70
2022-10-15T01:00:04.381Z,2.22
2022-10-15T01:04:50.781Z,2.07
2022-10-15T01:09:42.644Z,2.03
2022-10-15T01:14:42.659Z,2.00
2022-10-15T01:19:58.540Z,2.13
2022-10-15T01:25:01.689Z,2.35
2022-10-15T01:30:07.715Z,2.00
2022-10-15T01:34:59.352Z,1.80
2022-10-15T01:39:48.114Z,2.58
2022-10-15T01:44:37.333Z,1.77
2022-10-15T01:49:26.439Z,2.03
2022-10-15T01:54:19.446Z,1.58
2022-10-15T01:59:06.041Z,1.70
2022-10-15T02:03:53.855Z,2.63
2022-10-15T02:08:48.481Z,1.90
2022-10-15T02:13:47.454Z,2.13
2022-10-15T02:18:41.095Z,2.05
2022-10-15T02:23:30.648Z,1.90
2022-10-15T02:28:19.098Z,2.40
2022-10-15T02:33:07.938Z,2.00
2022-10-15T02:37:56.652Z,2.05
2022-10-15T02:42:42.222Z,2.45
2022-10-15T02:47:27.294Z,1.95
2022-10-15T02:52:15.190Z,1.90
2022-10-15T02:57:00.225Z,2.85
2022-10-15T03:01:45.553Z,2.30
2022-10-15T03:06:30.606Z,2.13
2022-10-15T03:11:18.590Z,2.60
2022-10-15T03:16:07.665Z,2.60
2022-10-15T03:20:57.676Z,3.15
2022-10-15T03:25:42.788Z,3.17
2022-10-15T03:30:31.076Z,2.60
2022-10-15T03:35:16.105Z,2.78
2022-10-15T03:40:01.475Z,2.97
2022-10-15T03:44:46.494Z,3.03
2022-10-15T03:49:34.424Z,3.05
2022-10-15T03:54:19.631Z,3.08
2022-10-15T03:59:04.915Z,3.05
2022-10-15T04:03:50.112Z,3.15
2022-10-15T04:08:38.132Z,3.13
2022-10-15T04:13:23.616Z,3.58
2022-10-15T04:18:09.032Z,3.47
2022-10-15T04:22:54.098Z,4.05
2022-10-15T04:27:42.052Z,3.30
2022-10-15T04:32:27.094Z,3.60
2022-10-15T04:37:12.448Z,3.67
2022-10-15T04:41:57.493Z,3.40
2022-10-15T04:46:45.441Z,3.35
2022-10-15T04:51:30.728Z,3.28
2022-10-15T04:56:18.117Z,3.22
2022-10-15T05:01:04.274Z,3.47
2022-10-15T05:05:52.216Z,3.42
2022-10-15T05:10:37.314Z,3.30
2022-10-15T05:15:22.615Z,2.78
2022-10-15T05:20:08.639Z,3.30
2022-10-15T05:24:56.567Z,2.85
2022-10-15T05:29:41.578Z,3.17
2022-10-15T05:34:28.741Z,2.45
2022-10-15T05:39:14.365Z,2.65
2022-10-15T05:44:02.283Z,2.70
2022-10-15T05:48:51.911Z,2.35
2022-10-15T05:53:37.879Z,2.40
2022-10-15T05:58:22.919Z,2.50
2022-10-15T06:03:15.303Z,2.40
2022-10-15T06:08:00.338Z,2.72
2022-10-15T06:12:46.051Z,2.38
2022-10-15T06:17:31.164Z,2.95
2022-10-15T06:22:19.150Z,2.50
2022-10-15T06:27:04.159Z,2.72
2022-10-15T06:31:50.171Z,2.17
2022-10-15T06:36:35.190Z,2.10
2022-10-15T06:41:23.204Z,2.35
2022-10-15T06:46:09.502Z,2.20
2022-10-15T06:50:54.923Z,2.22
2022-10-15T06:55:39.942Z,2.05
2022-10-15T07:00:28.572Z,2.00
2022-10-15T07:05:13.666Z,2.28
2022-10-15T07:09:59.242Z,2.40
2022-10-15T07:14:44.305Z,3.30
2022-10-15T07:19:32.234Z,3.60
2022-10-15T07:24:17.321Z,4.50
2022-10-15T07:29:03.639Z,4.70
2022-10-15T07:33:48.721Z,5.53
2022-10-15T07:38:37.007Z,6.28
2022-10-15T07:43:22.072Z,8.70
2022-10-15T07:48:08.216Z,7.35
2022-10-15T07:52:53.486Z,7.75
2022-10-15T07:57:41.514Z,6.63
2022-10-15T08:02:26.798Z,6.90
2022-10-15T08:07:12.289Z,6.20
2022-10-15T08:11:57.323Z,7.00
2022-10-15T08:16:45.253Z,6.47
2022-10-15T08:21:30.328Z,6.95
2022-10-15T08:26:15.673Z,6.32
2022-10-15T08:31:04.386Z,6.13
2022-10-15T08:35:55.168Z,5.43
2022-10-15T08:40:42.502Z,5.82
2022-10-15T08:45:33.848Z,5.75
2022-10-15T08:50:30.396Z,4.93
2022-10-15T08:55:20.534Z,4.57
2022-10-15T09:00:08.708Z,5.05
2022-10-15T09:05:01.600Z,4.05
2022-10-15T09:09:53.408Z,4.35
2022-10-15T09:19:32.469Z,3.78
2022-10-15T09:24:23.990Z,3.38
2022-10-15T09:29:18.736Z,2.78
2022-10-15T09:34:15.757Z,2.40
2022-10-15T09:39:15.680Z,2.63
2022-10-15T09:44:07.253Z,2.63
2022-10-15T09:49:01.349Z,2.40
2022-10-15T09:53:58.315Z,2.20
2022-10-15T09:58:52.118Z,2.40
2022-10-15T10:03:38.880Z,2.25
2022-10-15T10:08:27.269Z,2.28
2022-10-15T10:13:26.347Z,2.22
2022-10-15T10:18:22.106Z,2.40
2022-10-15T10:23:25.332Z,2.33
2022-10-15T10:28:31.062Z,2.65
2022-10-15T10:33:18.453Z,2.35
2022-10-15T10:38:03.604Z,2.40
2022-10-15T10:42:48.926Z,2.03
2022-10-15T10:47:40.318Z,2.00
2022-10-15T10:52:29.181Z,1.60
2022-10-15T10:57:17.031Z,1.77
2022-10-15T11:02:04.574Z,1.88
2022-10-15T11:07:03.640Z,1.88
2022-10-15T11:11:59.466Z,1.83
2022-10-15T11:16:56.418Z,1.70
2022-10-15T11:21:51.535Z,1.73
2022-10-15T11:27:10.145Z,2.00
2022-10-15T11:32:16.631Z,2.25
2022-10-15T11:37:18.441Z,1.88
2022-10-15T11:42:14.553Z,1.80
2022-10-15T11:47:12.524Z,2.00
2022-10-15T11:52:16.496Z,2.15
2022-10-15T11:57:06.932Z,2.10
2022-10-15T12:01:56.040Z,1.75
2022-10-15T12:06:50.880Z,1.80
2022-10-15T12:11:48.150Z,1.73
2022-10-15T12:16:42.433Z,2.08
2022-10-15T12:21:35.825Z,2.25
2022-10-15T12:26:32.373Z,2.08
2022-10-15T12:31:20.425Z,1.98
2022-10-15T12:36:12.057Z,1.40
2022-10-15T12:41:06.217Z,1.90
2022-10-15T12:45:58.002Z,1.50
2022-10-15T12:50:43.147Z,1.88
2022-10-15T12:55:36.624Z,1.50
2022-10-15T13:00:34.100Z,1.90
2022-10-15T13:05:30.270Z,1.58
2022-10-15T13:10:23.879Z,1.80
2022-10-15T13:15:19.152Z,1.60
2022-10-15T13:20:08.402Z,1.70
2022-10-15T13:24:54.102Z,1.65
2022-10-15T13:29:39.099Z,1.70
2022-10-15T13:34:35.800Z,1.80
2022-10-15T13:39:35.475Z,1.75
2022-10-15T13:44:25.560Z,1.60
2022-10-15T13:49:15.748Z,1.67
2022-10-15T13:54:05.122Z,1.50
2022-10-15T13:58:50.747Z,1.92
2022-10-15T14:03:39.422Z,2.47
2022-10-15T14:08:27.669Z,2.22
2022-10-15T14:13:15.881Z,1.55
2022-10-15T14:18:01.014Z,3.95
2022-10-15T14:22:46.330Z,1.73
2022-10-15T14:27:32.528Z,1.63
2022-10-15T14:32:29.732Z,1.48
2022-10-15T14:37:45.748Z,1.50
2022-10-15T14:42:34.560Z,2.17
2022-10-15T14:47:24.253Z,3.10
2022-10-15T14:52:19.684Z,3.80
2022-10-15T14:57:05.378Z,3.70
2022-10-15T15:02:01.713Z,3.90
2022-10-15T15:06:48.102Z,3.83
2022-10-15T15:11:36.099Z,3.58
2022-10-15T15:16:22.253Z,3.55
2022-10-15T15:21:10.122Z,3.45
2022-10-15T15:25:55.804Z,3.30
2022-10-15T15:30:45.501Z,3.25
2022-10-15T15:35:36.731Z,3.08
2022-10-15T15:40:22.531Z,3.53
2022-10-15T15:45:08.499Z,2.95
2022-10-15T15:49:56.421Z,2.95
2022-10-15T15:54:41.518Z,2.95
2022-10-15T15:59:26.810Z,3.08
2022-10-15T16:04:11.825Z,2.75
2022-10-15T16:08:59.903Z,3.15
2022-10-15T16:13:44.896Z,3.20
2022-10-15T16:18:30.186Z,3.28
2022-10-15T16:23:15.328Z,2.63
2022-10-15T16:28:03.306Z,3.55
2022-10-15T16:32:48.731Z,2.83
2022-10-15T16:37:34.158Z,3.60
2022-10-15T16:42:19.236Z,3.55
2022-10-15T16:47:07.118Z,3.58
2022-10-15T16:51:52.284Z,2.95
2022-10-15T16:56:38.301Z,3.05
2022-10-15T17:01:25.742Z,3.22
2022-10-15T17:06:17.256Z,3.60
2022-10-15T17:11:02.303Z,3.75
2022-10-15T17:15:47.588Z,4.97
2022-10-15T17:20:34.703Z,4.93
2022-10-15T17:25:22.606Z,4.88
2022-10-15T17:30:09.008Z,5.25
2022-10-15T17:34:54.370Z,5.30
2022-10-15T17:39:39.416Z,4.25
2022-10-15T17:44:27.322Z,4.30
2022-10-15T17:49:15.319Z,4.93
2022-10-15T17:54:01.814Z,4.97
2022-10-15T17:58:47.567Z,8.98
2022-10-15T18:03:36.383Z,5.78
2022-10-15T18:08:21.670Z,5.40
2022-10-15T18:13:07.351Z,5.30
2022-10-15T18:17:52.462Z,8.70
2022-10-15T18:22:40.383Z,7.47
2022-10-15T18:27:25.737Z,6.30
2022-10-15T18:32:11.323Z,6.22
2022-10-15T18:36:57.184Z,5.22
2022-10-15T18:46:51.059Z,4.55
2022-10-15T18:51:36.131Z,5.82
2022-10-15T18:56:24.026Z,4.68
2022-10-15T19:01:19.626Z,6.03
2022-10-15T19:06:07.882Z,5.25
2022-10-15T19:10:52.892Z,5.65
2022-10-15T19:15:38.994Z,5.80
2022-10-15T19:20:26.891Z,5.32
2022-10-15T19:25:12.680Z,4.78
2022-10-15T19:29:57.994Z,4.38
2022-10-15T19:34:43.323Z,4.68
2022-10-15T19:39:32.242Z,4.70
2022-10-15T19:44:20.280Z,4.50
2022-10-15T19:49:05.484Z,5.65
2022-10-15T19:53:54.497Z,5.78
2022-10-15T19:58:42.171Z,5.10
2022-10-15T20:03:29.822Z,4.97
2022-10-15T20:08:15.245Z,6.28
2022-10-15T20:13:00.699Z,5.05
2022-10-15T20:17:48.400Z,5.18
2022-10-15T20:22:33.696Z,4.78
2022-10-15T20:27:19.183Z,4.78
2022-10-15T20:32:16.784Z,5.40
2022-10-15T20:37:13.271Z,5.20
2022-10-15T20:41:58.339Z,4.38
2022-10-15T20:46:48.542Z,4.68
2022-10-15T20:51:33.710Z,4.65
2022-10-15T20:56:21.939Z,5.03
2022-10-15T21:01:07.898Z,4.45
2022-10-15T21:05:53.375Z,5.25
2022-10-15T21:10:39.129Z,10.65
2022-10-15T21:15:27.595Z,5.45
2022-10-15T21:20:13.178Z,5.50
2022-10-15T21:24:58.558Z,5.22
2022-10-15T21:29:45.281Z,6.35
2022-10-15T21:34:33.173Z,5.32
2022-10-15T21:39:19.658Z,5.38
2022-10-15T21:44:06.706Z,6.25
2022-10-15T21:48:51.988Z,6.50
2022-10-15T21:53:39.930Z,7.07
2022-10-15T21:58:25.830Z,7.88
2022-10-15T22:03:11.115Z,6.50
2022-10-15T22:07:56.453Z,6.18
2022-10-15T22:12:44.147Z,5.50
2022-10-15T22:17:31.370Z,6.20
2022-10-15T22:22:16.424Z,6.70
2022-10-15T22:27:01.838Z,6.75
2022-10-15T22:31:49.730Z,6.88
2022-10-15T22:36:35.183Z,6.38
2022-10-15T22:41:20.556Z,6.38
2022-10-15T22:46:06.745Z,5.75
2022-10-15T22:51:01.321Z,5.80
2022-10-15T22:55:46.649Z,5.53
2022-10-15T23:00:31.677Z,6.28
2022-10-15T23:05:17.193Z,4.95
2022-10-15T23:10:04.877Z,4.80
2022-10-15T23:14:51.002Z,4.55
2022-10-15T23:19:36.295Z,5.30
2022-10-15T23:24:23.844Z,4.85
2022-10-15T23:29:15.967Z,5.82
2022-10-15T23:34:01.694Z,4.55
2022-10-15T23:38:46.785Z,4.30
2022-10-15T23:43:32.490Z,4.47
2022-10-15T23:48:20.250Z,4.43
2022-10-15T23:53:05.548Z,4.47
2022-10-15T23:57:51.013Z,4.53
